createdAt,value
2018-09-24T00:00:14.593Z,8.24
2018-09-24T00:01:14.353Z,8.24
2018-09-24T00:02:14.405Z,8.23
2018-09-24T00:03:14.415Z,8.20
2018-09-24T00:04:14.447Z,8.19
2018-09-24T00:05:14.445Z,8.22
2018-09-24T00:06:14.413Z,8.24
2018-09-24T00:07:14.410Z,8.27
2018-09-24T00:08:14.431Z,8.27
2018-09-24T00:09:14.412Z,8.26
2018-09-24T00:10:14.413Z,8.26
2018-09-24T00:11:14.369Z,8.23
2018-09-24T00:12:14.314Z,8.22
2018-09-24T00:13:14.376Z,8.20
2018-09-24T00:14:14.397Z,8.20
2018-09-24T00:15:14.375Z,8.22
2018-09-24T00:16:14.338Z,8.17
2018-09-24T00:17:14.415Z,8.17
2018-09-24T00:18:14.321Z,8.17
2018-09-24T00:19:14.414Z,8.17
2018-09-24T00:20:14.327Z,8.17
2018-09-24T00:21:14.293Z,8.17
2018-09-24T00:22:14.308Z,8.16
2018-09-24T00:23:14.419Z,8.15
2018-09-24T00:24:14.385Z,8.13
2018-09-24T00:25:14.342Z,8.16
2018-09-24T00:26:14.420Z,8.16
2018-09-24T00:27:14.344Z,8.15
2018-09-24T00:28:14.410Z,8.13
2018-09-24T00:29:14.433Z,8.12
2018-09-24T00:30:14.450Z,8.12
2018-09-24T00:31:14.360Z,8.11
2018-09-24T00:32:14.430Z,8.09
2018-09-24T00:33:14.471Z,8.08
2018-09-24T00:34:14.396Z,8.08
2018-09-24T00:35:14.438Z,8.08
2018-09-24T00:36:14.471Z,8.09
2018-09-24T00:37:14.353Z,8.08
2018-09-24T00:38:14.433Z,8.05
2018-09-24T00:39:14.434Z,8.06
2018-09-24T00:40:14.370Z,8.06
2018-09-24T00:41:14.375Z,8.05
2018-09-24T00:42:14.370Z,8.08
2018-09-24T00:43:14.380Z,8.05
2018-09-24T00:44:14.440Z,8.05
2018-09-24T00:45:14.415Z,8.02
2018-09-24T00:46:14.328Z,8.01
2018-09-24T00:47:14.374Z,7.99
2018-09-24T00:48:14.414Z,7.98
2018-09-24T00:49:14.413Z,7.98
2018-09-24T00:50:14.406Z,7.95
2018-09-24T00:51:14.441Z,7.97
2018-09-24T00:52:14.425Z,7.93
2018-09-24T00:53:14.460Z,7.92
2018-09-24T00:54:14.350Z,7.92
2018-09-24T00:55:14.363Z,7.90
2018-09-24T00:56:14.471Z,7.89
2018-09-24T00:57:14.470Z,7.87
2018-09-24T00:58:14.478Z,7.86
2018-09-24T00:59:14.352Z,7.86
2018-09-24T01:00:14.446Z,7.86
2018-09-24T01:01:14.390Z,7.89
2018-09-24T01:02:14.372Z,7.97
2018-09-24T01:03:14.448Z,7.98
2018-09-24T01:04:14.376Z,7.99
2018-09-24T01:05:14.485Z,7.99
2018-09-24T01:06:14.453Z,7.99
2018-09-24T01:07:14.424Z,8.01
2018-09-24T01:08:14.391Z,8.01
2018-09-24T01:09:14.459Z,8.01
2018-09-24T01:10:14.389Z,7.99
2018-09-24T01:11:14.460Z,8.01
2018-09-24T01:12:14.462Z,8.02
2018-09-24T01:13:14.463Z,8.04
2018-09-24T01:14:14.391Z,8.02
2018-09-24T01:15:14.397Z,8.05
2018-09-24T01:16:14.431Z,8.06
2018-09-24T01:17:14.401Z,8.06
2018-09-24T01:18:14.453Z,8.06
2018-09-24T01:19:14.367Z,8.08
2018-09-24T01:20:14.366Z,8.06
2018-09-24T01:21:14.458Z,8.06
2018-09-24T01:22:14.458Z,8.08
2018-09-24T01:23:14.386Z,8.08
2018-09-24T01:24:14.405Z,8.08
2018-09-24T01:25:14.458Z,8.08
2018-09-24T01:26:14.461Z,8.06
2018-09-24T01:27:14.393Z,8.06
2018-09-24T01:28:14.490Z,8.08
2018-09-24T01:29:14.531Z,8.09
2018-09-24T01:30:14.500Z,8.11
2018-09-24T01:31:14.453Z,8.12
2018-09-24T01:32:14.450Z,8.12
2018-09-24T01:33:14.471Z,8.12
2018-09-24T01:34:14.482Z,8.13
2018-09-24T01:35:14.442Z,8.15
2018-09-24T01:36:14.507Z,8.16
2018-09-24T01:37:14.448Z,8.15
2018-09-24T01:38:14.408Z,8.17
2018-09-24T01:39:14.409Z,8.22
2018-09-24T01:40:14.416Z,8.24
2018-09-24T01:41:14.412Z,8.24
2018-09-24T01:42:14.483Z,8.24
2018-09-24T01:43:14.446Z,8.22
2018-09-24T01:44:14.479Z,8.19
2018-09-24T01:45:14.495Z,8.15
2018-09-24T01:46:14.485Z,8.12
2018-09-24T01:47:14.506Z,8.08
2018-09-24T01:48:14.404Z,8.09
2018-09-24T01:49:14.402Z,8.08
2018-09-24T01:50:14.437Z,8.08
2018-09-24T01:51:14.342Z,8.05
2018-09-24T01:52:14.406Z,8.02
2018-09-24T01:53:14.407Z,7.99
2018-09-24T01:54:14.340Z,7.98
2018-09-24T01:55:14.393Z,7.97
2018-09-24T01:56:14.344Z,7.99
2018-09-24T01:57:14.440Z,8.01
2018-09-24T01:58:14.493Z,8.08
2018-09-24T01:59:14.412Z,8.09
2018-09-24T02:00:14.484Z,8.09
2018-09-24T02:01:14.493Z,8.06
2018-09-24T02:02:14.477Z,8.04
2018-09-24T02:03:14.516Z,8.04
2018-09-24T02:04:14.438Z,8.02
2018-09-24T02:05:14.458Z,8.02
2018-09-24T02:06:14.478Z,8.06
2018-09-24T02:07:14.475Z,8.09
2018-09-24T02:08:14.446Z,8.09
2018-09-24T02:09:14.431Z,8.09
2018-09-24T02:10:14.385Z,8.11
2018-09-24T02:11:14.392Z,8.09
2018-09-24T02:12:14.426Z,8.11
2018-09-24T02:13:14.391Z,8.12
2018-09-24T02:14:14.393Z,8.12
2018-09-24T02:15:14.484Z,8.12
2018-09-24T02:16:14.459Z,8.13
2018-09-24T02:17:14.488Z,8.15
2018-09-24T02:18:14.438Z,8.15
2018-09-24T02:19:14.444Z,8.13
2018-09-24T02:20:14.511Z,8.12
2018-09-24T02:21:14.443Z,8.11
2018-09-24T02:22:14.512Z,8.11
2018-09-24T02:23:14.440Z,8.12
2018-09-24T02:24:14.525Z,8.13
2018-09-24T02:25:14.512Z,8.13
2018-09-24T02:26:14.444Z,8.17
2018-09-24T02:27:14.446Z,8.19
2018-09-24T02:28:14.402Z,8.20
2018-09-24T02:29:14.413Z,8.22
2018-09-24T02:30:14.444Z,8.23
2018-09-24T02:31:14.497Z,8.24
2018-09-24T02:32:14.507Z,8.27
2018-09-24T02:33:14.508Z,8.28
2018-09-24T02:34:14.498Z,8.31
2018-09-24T02:35:14.475Z,8.34
2018-09-24T02:36:14.413Z,8.37
2018-09-24T02:37:14.457Z,8.38
2018-09-24T02:38:14.456Z,8.38
2018-09-24T02:39:14.489Z,8.38
2018-09-24T02:40:14.454Z,8.39
2018-09-24T02:41:14.523Z,8.42
2018-09-24T02:42:14.525Z,8.39
2018-09-24T02:43:14.457Z,8.39
2018-09-24T02:44:14.460Z,8.39
2018-09-24T02:45:14.523Z,8.38
2018-09-24T02:46:14.527Z,8.37
2018-09-24T02:47:14.458Z,8.37
2018-09-24T02:48:14.376Z,8.35
2018-09-24T02:49:14.382Z,8.37
2018-09-24T02:50:14.448Z,8.37
2018-09-24T02:51:14.378Z,8.37
2018-09-24T02:52:14.433Z,8.37
2018-09-24T02:53:14.435Z,8.37
2018-09-24T02:54:14.446Z,8.37
2018-09-24T02:55:14.549Z,8.38
2018-09-24T02:56:14.420Z,8.38
2018-09-24T02:57:14.434Z,8.39
2018-09-24T02:58:14.539Z,8.42
2018-09-24T02:59:14.475Z,8.42
2018-09-24T03:00:14.473Z,8.42
2018-09-24T03:01:14.622Z,8.39
2018-09-24T03:02:14.473Z,8.39
2018-09-24T03:03:14.541Z,8.39
2018-09-24T03:04:14.491Z,8.39
2018-09-24T03:05:14.541Z,8.39
2018-09-24T03:06:14.544Z,8.39
2018-09-24T03:07:14.544Z,8.37
2018-09-24T03:08:14.508Z,8.37
2018-09-24T03:09:14.515Z,8.35
2018-09-24T03:10:14.502Z,8.35
2018-09-24T03:11:14.584Z,8.35
2018-09-24T03:12:14.498Z,8.35
2018-09-24T03:13:14.443Z,8.37
2018-09-24T03:14:14.442Z,8.34
2018-09-24T03:15:14.505Z,8.34
2018-09-24T03:16:14.515Z,8.33
2018-09-24T03:17:14.571Z,8.31
2018-09-24T03:18:14.571Z,8.30
2018-09-24T03:19:14.494Z,8.31
2018-09-24T03:20:14.532Z,8.31
2018-09-24T03:21:14.554Z,8.30
2018-09-24T03:22:14.509Z,8.31
2018-09-24T03:23:14.514Z,8.33
2018-09-24T03:24:14.471Z,8.33
2018-09-24T03:25:14.528Z,8.31
2018-09-24T03:26:14.626Z,8.27
2018-09-24T03:27:14.497Z,8.26
2018-09-24T03:28:14.564Z,8.24
2018-09-24T03:29:14.556Z,8.23
2018-09-24T03:30:14.660Z,8.22
2018-09-24T03:31:14.492Z,8.19
2018-09-24T03:32:14.561Z,8.20
2018-09-24T03:33:14.495Z,8.20
2018-09-24T03:34:14.561Z,8.19
2018-09-24T03:35:14.562Z,8.17
2018-09-24T03:36:14.498Z,8.17
2018-09-24T03:37:14.560Z,8.16
2018-09-24T03:38:14.563Z,8.17
2018-09-24T03:39:14.524Z,8.19
2018-09-24T03:40:14.521Z,8.19
2018-09-24T03:41:14.490Z,8.17
2018-09-24T03:42:14.545Z,8.17
2018-09-24T03:43:14.603Z,8.16
2018-09-24T03:44:14.599Z,8.16
2018-09-24T03:45:14.538Z,8.13
2018-09-24T03:46:14.602Z,8.12
2018-09-24T03:47:14.567Z,8.09
2018-09-24T03:48:14.475Z,8.06
2018-09-24T03:49:14.537Z,8.05
2018-09-24T03:50:14.552Z,8.02
2018-09-24T03:51:14.605Z,8.01
2018-09-24T03:52:14.576Z,8.01
2018-09-24T03:53:14.472Z,8.04
2018-09-24T03:54:14.549Z,8.05
2018-09-24T03:55:14.538Z,8.04
2018-09-24T03:56:14.526Z,8.02
2018-09-24T03:57:14.576Z,7.98
2018-09-24T03:58:14.579Z,7.95
2018-09-24T03:59:14.509Z,7.93
2018-09-24T04:00:14.578Z,7.93
2018-09-24T04:01:14.518Z,7.95
2018-09-24T04:02:14.518Z,7.93
2018-09-24T04:03:14.578Z,7.93
2018-09-24T04:04:14.607Z,7.90
2018-09-24T04:05:14.513Z,7.89
2018-09-24T04:06:14.575Z,7.85
2018-09-24T04:07:14.589Z,7.83
2018-09-24T04:08:14.519Z,7.81
2018-09-24T04:09:14.602Z,7.81
2018-09-24T04:10:14.713Z,7.81
2018-09-24T04:11:14.588Z,7.79
2018-09-24T04:12:14.587Z,7.79
2018-09-24T04:13:14.524Z,7.79
2018-09-24T04:14:14.521Z,7.78
2018-09-24T04:15:14.519Z,7.76
2018-09-24T04:16:14.520Z,7.75
2018-09-24T04:17:14.474Z,7.76
2018-09-24T04:18:14.513Z,7.74
2018-09-24T04:19:14.618Z,7.70
2018-09-24T04:20:14.519Z,7.68
2018-09-24T04:21:14.624Z,7.68
2018-09-24T04:22:14.612Z,7.68
2018-09-24T04:23:14.500Z,7.68
2018-09-24T04:24:14.504Z,7.71
2018-09-24T04:25:14.567Z,7.72
2018-09-24T04:26:14.703Z,7.72
2018-09-24T04:27:14.599Z,7.76
2018-09-24T04:28:14.487Z,7.79
2018-09-24T04:29:14.540Z,7.81
2018-09-24T04:30:14.547Z,7.81
2018-09-24T04:31:14.516Z,7.81
2018-09-24T04:32:14.456Z,7.79
2018-09-24T04:33:14.552Z,7.79
2018-09-24T04:34:14.457Z,7.79
2018-09-24T04:35:14.460Z,7.79
2018-09-24T04:36:14.503Z,7.79
2018-09-24T04:37:14.510Z,7.78
2018-09-24T04:38:14.510Z,7.79
2018-09-24T04:39:14.646Z,7.79
2018-09-24T04:40:14.626Z,7.79
2018-09-24T04:41:14.604Z,7.81
2018-09-24T04:42:14.607Z,7.82
2018-09-24T04:43:14.630Z,7.83
2018-09-24T04:44:14.570Z,7.79
2018-09-24T04:45:14.560Z,7.79
2018-09-24T04:46:14.645Z,7.78
2018-09-24T04:47:14.606Z,7.75
2018-09-24T04:48:14.514Z,7.74
2018-09-24T04:49:14.670Z,7.70
2018-09-24T04:50:14.622Z,7.68
2018-09-24T04:51:14.632Z,7.67
2018-09-24T04:52:14.570Z,7.63
2018-09-24T04:53:14.613Z,7.60
2018-09-24T04:54:14.634Z,7.58
2018-09-24T04:55:14.424Z,7.55
2018-09-24T04:56:14.616Z,7.51
2018-09-24T04:57:14.519Z,7.49
2018-09-24T04:58:14.544Z,7.48
2018-09-24T04:59:14.549Z,7.45
2018-09-24T05:00:14.489Z,7.44
2018-09-24T05:01:14.518Z,7.44
2018-09-24T05:02:14.600Z,7.46
2018-09-24T05:03:14.609Z,7.48
2018-09-24T05:04:14.492Z,7.48
2018-09-24T05:05:14.572Z,7.44
2018-09-24T05:06:14.549Z,7.44
2018-09-24T05:07:14.515Z,7.42
2018-09-24T05:08:14.528Z,7.42
2018-09-24T05:09:14.622Z,7.40
2018-09-24T05:10:14.557Z,7.41
2018-09-24T05:11:14.658Z,7.41
2018-09-24T05:12:14.633Z,7.42
2018-09-24T05:13:14.705Z,7.38
2018-09-24T05:14:14.588Z,7.35
2018-09-24T05:15:14.667Z,7.31
2018-09-24T05:16:14.691Z,7.30
2018-09-24T05:17:14.667Z,7.30
2018-09-24T05:18:14.531Z,7.27
2018-09-24T05:19:14.662Z,7.26
2018-09-24T05:20:14.653Z,7.23
2018-09-24T05:21:14.593Z,7.23
2018-09-24T05:22:14.598Z,7.23
2018-09-24T05:23:14.820Z,7.23
2018-09-24T05:24:14.599Z,7.23
2018-09-24T05:25:14.622Z,7.23
2018-09-24T05:26:14.704Z,7.23
2018-09-24T05:27:14.722Z,7.22
2018-09-24T05:28:14.642Z,7.20
2018-09-24T05:29:14.572Z,7.19
2018-09-24T05:30:14.573Z,7.16
2018-09-24T05:31:14.641Z,7.15
2018-09-24T05:32:14.706Z,7.15
2018-09-24T05:33:14.608Z,7.15
2018-09-24T05:34:14.668Z,7.12
2018-09-24T05:35:14.576Z,7.12
2018-09-24T05:36:14.584Z,7.12
2018-09-24T05:37:14.575Z,7.12
2018-09-24T05:38:14.589Z,7.15
2018-09-24T05:39:14.581Z,7.13
2018-09-24T05:40:14.573Z,7.15
2018-09-24T05:41:14.719Z,7.15
2018-09-24T05:42:14.648Z,7.18
2018-09-24T05:43:14.586Z,7.16
2018-09-24T05:44:14.673Z,7.18
2018-09-24T05:45:14.590Z,7.19
2018-09-24T05:46:14.656Z,7.18
2018-09-24T05:47:14.653Z,7.19
2018-09-24T05:48:14.597Z,7.19
2018-09-24T05:49:14.654Z,7.19
2018-09-24T05:50:14.710Z,7.19
2018-09-24T05:51:14.567Z,7.23
2018-09-24T05:52:14.695Z,7.24
2018-09-24T05:53:14.693Z,7.26
2018-09-24T05:54:14.625Z,7.27
2018-09-24T05:55:14.663Z,7.30
2018-09-24T05:56:14.617Z,7.27
2018-09-24T05:57:14.575Z,7.30
2018-09-24T05:58:14.565Z,7.30
2018-09-24T05:59:14.621Z,7.29
2018-09-24T06:00:14.689Z,7.29
2018-09-24T06:01:14.664Z,7.29
2018-09-24T06:02:14.686Z,7.30
2018-09-24T06:03:14.749Z,7.30
2018-09-24T06:04:14.624Z,7.35
2018-09-24T06:05:14.694Z,7.37
2018-09-24T06:06:14.703Z,7.40
2018-09-24T06:07:14.646Z,7.44
2018-09-24T06:08:14.608Z,7.45
2018-09-24T06:09:14.568Z,7.48
2018-09-24T06:10:14.554Z,7.51
2018-09-24T06:11:14.557Z,7.53
2018-09-24T06:12:14.573Z,7.56
2018-09-24T06:13:14.760Z,7.59
2018-09-24T06:14:14.605Z,7.63
2018-09-24T06:15:14.603Z,7.64
2018-09-24T06:16:14.540Z,7.67
2018-09-24T06:17:14.592Z,7.71
2018-09-24T06:18:14.592Z,7.76
2018-09-24T06:19:14.677Z,7.82
2018-09-24T06:20:14.652Z,7.86
2018-09-24T06:21:14.654Z,7.90
2018-09-24T06:22:14.632Z,7.93
2018-09-24T06:23:14.644Z,7.93
2018-09-24T06:24:14.636Z,7.92
2018-09-24T06:25:14.681Z,7.93
2018-09-24T06:26:14.652Z,7.93
2018-09-24T06:27:14.712Z,7.90
2018-09-24T06:28:14.597Z,7.89
2018-09-24T06:29:14.706Z,7.87
2018-09-24T06:32:14.648Z,7.83
2018-09-24T06:33:14.585Z,7.83
2018-09-24T06:34:14.705Z,7.86
2018-09-24T06:35:14.721Z,7.86
2018-09-24T06:36:14.664Z,7.89
2018-09-24T06:37:14.715Z,7.92
2018-09-24T06:38:14.687Z,7.90
2018-09-24T06:39:14.691Z,7.93
2018-09-24T06:40:14.621Z,7.97
2018-09-24T06:41:14.777Z,7.99
2018-09-24T06:42:14.625Z,8.02
2018-09-24T06:43:14.624Z,8.05
2018-09-24T06:45:14.695Z,8.12
2018-09-24T06:46:14.691Z,8.13
2018-09-24T06:47:14.629Z,8.17
2018-09-24T06:48:14.692Z,8.20
2018-09-24T06:49:14.619Z,8.20
2018-09-24T06:50:14.569Z,8.24
2018-09-24T06:51:14.665Z,8.34
2018-09-24T06:52:14.620Z,8.42
2018-09-24T06:53:14.693Z,8.47
2018-09-24T06:54:14.621Z,8.53
2018-09-24T06:55:14.617Z,8.57
2018-09-24T06:56:14.695Z,8.61
2018-09-24T06:57:14.647Z,8.64
2018-09-24T06:58:14.623Z,8.74
2018-09-24T06:59:14.637Z,8.79
2018-09-24T07:00:14.637Z,8.79
2018-09-24T07:01:14.644Z,8.80
2018-09-24T07:02:14.636Z,8.79
2018-09-24T07:03:14.707Z,8.86
2018-09-24T07:04:14.745Z,8.87
2018-09-24T07:05:14.642Z,8.93
2018-09-24T07:06:14.641Z,8.98
2018-09-24T07:07:14.645Z,9.04
2018-09-24T07:08:14.710Z,9.11
2018-09-24T07:09:14.749Z,9.19
2018-09-24T07:10:14.664Z,9.19
2018-09-24T07:11:14.702Z,9.27
2018-09-24T07:12:14.749Z,9.28
2018-09-24T07:13:14.634Z,9.36
2018-09-24T07:14:14.742Z,9.42
2018-09-24T07:15:14.778Z,9.42
2018-09-24T07:16:14.691Z,9.42
2018-09-24T07:17:14.748Z,9.50
2018-09-24T07:18:14.618Z,9.55
2018-09-24T07:19:14.716Z,9.61
2018-09-24T07:20:14.728Z,9.65
2018-09-24T07:21:14.653Z,9.69
2018-09-24T07:22:14.723Z,9.69
2018-09-24T07:23:14.653Z,9.76
2018-09-24T07:24:14.655Z,9.86
2018-09-24T07:25:14.918Z,9.91
2018-09-24T07:26:14.657Z,9.89
2018-09-24T07:27:14.719Z,9.90
2018-09-24T07:28:14.781Z,9.94
2018-09-24T07:29:14.718Z,10.00
2018-09-24T07:30:14.681Z,9.97
2018-09-24T07:31:14.644Z,10.02
2018-09-24T07:32:14.710Z,10.05
2018-09-24T07:33:14.650Z,10.13
2018-09-24T07:34:14.685Z,10.16
2018-09-24T07:35:14.637Z,10.14
2018-09-24T07:36:14.649Z,10.16
2018-09-24T07:37:14.651Z,10.16
2018-09-24T07:38:14.729Z,10.13
2018-09-24T07:39:14.688Z,10.05
2018-09-24T07:40:14.757Z,10.00
2018-09-24T07:41:14.695Z,9.90
2018-09-24T07:42:14.639Z,9.76
2018-09-24T07:43:14.885Z,9.72
2018-09-24T07:44:14.636Z,9.66
2018-09-24T07:45:14.756Z,9.57
2018-09-24T07:46:14.712Z,9.55
2018-09-24T07:47:14.816Z,9.51
2018-09-24T07:48:14.657Z,9.49
2018-09-24T07:49:14.697Z,9.53
2018-09-24T07:50:14.694Z,9.58
2018-09-24T07:51:14.745Z,9.64
2018-09-24T07:52:14.739Z,9.69
2018-09-24T07:53:14.644Z,9.75
2018-09-24T07:54:14.769Z,9.75
2018-09-24T07:55:14.745Z,9.73
2018-09-24T07:56:14.739Z,9.73
2018-09-24T07:57:14.707Z,9.72
2018-09-24T07:58:14.746Z,9.66
2018-09-24T07:59:14.721Z,9.62
2018-09-24T08:00:14.708Z,9.65
2018-09-24T08:01:14.776Z,9.72
2018-09-24T08:02:14.671Z,9.80
2018-09-24T08:03:14.748Z,9.82
2018-09-24T08:04:14.779Z,9.84
2018-09-24T08:05:14.715Z,9.94
2018-09-24T08:06:14.787Z,10.04
2018-09-24T08:07:14.792Z,10.14
2018-09-24T08:08:14.751Z,10.24
2018-09-24T08:09:14.751Z,10.32
2018-09-24T08:10:14.751Z,10.46
2018-09-24T08:11:14.693Z,10.56
2018-09-24T08:12:14.747Z,10.61
2018-09-24T08:13:14.794Z,10.64
2018-09-24T08:14:14.646Z,10.74
2018-09-24T08:15:14.758Z,10.86
2018-09-24T08:16:14.689Z,10.97
2018-09-24T08:17:14.756Z,11.11
2018-09-24T08:18:14.767Z,11.14
2018-09-24T08:19:14.785Z,11.18
2018-09-24T08:20:14.795Z,11.13
2018-09-24T08:21:14.760Z,11.10
2018-09-24T08:22:14.794Z,11.07
2018-09-24T08:23:14.782Z,11.13
2018-09-24T08:24:14.731Z,11.17
2018-09-24T08:25:14.766Z,11.25
2018-09-24T08:26:14.766Z,11.31
2018-09-24T08:27:14.745Z,11.33
2018-09-24T08:28:14.787Z,11.25
2018-09-24T08:29:14.776Z,11.27
2018-09-24T08:30:14.700Z,11.29
2018-09-24T08:31:14.703Z,11.28
2018-09-24T08:32:14.733Z,11.28
2018-09-24T08:33:14.775Z,11.32
2018-09-24T08:34:14.704Z,11.46
2018-09-24T08:35:14.729Z,11.54
2018-09-24T08:36:14.753Z,11.60
2018-09-24T08:37:14.771Z,11.49
2018-09-24T08:38:14.770Z,11.49
2018-09-24T08:39:14.776Z,11.45
2018-09-24T08:40:14.706Z,11.49
2018-09-24T08:41:14.713Z,11.65
2018-09-24T08:42:14.708Z,11.71
2018-09-24T08:43:14.774Z,11.65
2018-09-24T08:44:14.747Z,11.71
2018-09-24T08:45:14.781Z,11.80
2018-09-24T08:46:14.777Z,11.83
2018-09-24T08:47:14.714Z,11.91
2018-09-24T08:48:14.719Z,12.03
2018-09-24T08:49:14.719Z,12.12
2018-09-24T08:50:14.790Z,12.10
2018-09-24T08:51:14.719Z,12.09
2018-09-24T08:52:14.786Z,12.25
2018-09-24T08:53:14.830Z,12.37
2018-09-24T08:54:14.790Z,12.40
2018-09-24T08:55:14.720Z,12.53
2018-09-24T08:56:14.726Z,12.51
2018-09-24T08:57:14.813Z,12.46
2018-09-24T08:58:14.720Z,12.29
2018-09-24T08:59:14.785Z,12.25
2018-09-24T09:00:14.723Z,12.22
2018-09-24T09:01:14.722Z,12.28
2018-09-24T09:02:14.796Z,12.31
2018-09-24T09:03:14.723Z,12.40
2018-09-24T09:04:14.790Z,12.50
2018-09-24T09:05:14.800Z,12.61
2018-09-24T09:06:14.793Z,12.68
2018-09-24T09:07:14.794Z,12.64
2018-09-24T09:08:14.726Z,12.46
2018-09-24T09:09:14.753Z,12.47
2018-09-24T09:10:14.755Z,12.58
2018-09-24T09:11:14.858Z,12.71
2018-09-24T09:12:14.809Z,12.76
2018-09-24T09:13:14.840Z,12.82
2018-09-24T09:14:14.706Z,12.84
2018-09-24T09:15:14.719Z,12.87
2018-09-24T09:16:14.854Z,12.83
2018-09-24T09:17:14.769Z,12.72
2018-09-24T09:18:14.768Z,12.72
2018-09-24T09:19:14.930Z,12.72
2018-09-24T09:20:14.803Z,12.77
2018-09-24T09:21:14.781Z,12.77
2018-09-24T09:22:14.819Z,12.83
2018-09-24T09:23:14.885Z,12.96
2018-09-24T09:24:14.770Z,13.09
2018-09-24T09:25:14.805Z,13.06
2018-09-24T09:26:14.777Z,13.06
2018-09-24T09:27:14.773Z,13.07
2018-09-24T09:28:14.735Z,13.16
2018-09-24T09:29:14.703Z,13.32
2018-09-24T09:30:14.672Z,13.38
2018-09-24T09:31:14.785Z,13.43
2018-09-24T09:32:14.690Z,13.49
2018-09-24T09:33:14.747Z,13.49
2018-09-24T09:34:14.707Z,13.65
2018-09-24T09:35:14.808Z,13.77
2018-09-24T09:36:14.803Z,13.81
2018-09-24T09:37:14.710Z,13.61
2018-09-24T09:38:14.691Z,13.45
2018-09-24T09:39:14.774Z,13.53
2018-09-24T09:40:14.809Z,13.61
2018-09-24T09:41:14.862Z,13.68
2018-09-24T09:42:14.812Z,13.83
2018-09-24T09:43:14.750Z,13.72
2018-09-24T09:44:14.753Z,13.29
2018-09-24T09:45:14.811Z,13.29
2018-09-24T09:46:14.785Z,13.39
2018-09-24T09:47:14.819Z,13.50
2018-09-24T09:48:14.708Z,13.40
2018-09-24T09:49:14.756Z,13.28
2018-09-24T09:50:14.768Z,13.28
2018-09-24T09:51:14.858Z,13.42
2018-09-24T09:52:14.729Z,13.35
2018-09-24T09:53:14.832Z,13.46
2018-09-24T09:54:14.828Z,13.56
2018-09-24T09:55:14.830Z,13.51
2018-09-24T09:56:14.760Z,13.25
2018-09-24T09:57:14.827Z,13.28
2018-09-24T09:58:14.773Z,13.50
2018-09-24T09:59:14.860Z,13.62
2018-09-24T10:00:14.777Z,13.42
2018-09-24T10:01:14.875Z,13.42
2018-09-24T10:02:14.892Z,13.56
2018-09-24T10:03:14.805Z,13.66
2018-09-24T10:04:14.806Z,13.79
2018-09-24T10:05:14.758Z,13.91
2018-09-24T10:06:14.815Z,13.69
2018-09-24T10:07:14.873Z,13.49
2018-09-24T10:08:14.842Z,13.47
2018-09-24T10:09:14.738Z,13.56
2018-09-24T10:10:14.741Z,13.56
2018-09-24T10:11:14.913Z,13.39
2018-09-24T10:12:14.821Z,13.25
2018-09-24T10:13:14.813Z,13.13
2018-09-24T10:14:14.768Z,13.20
2018-09-24T10:15:14.761Z,13.31
2018-09-24T10:16:14.827Z,13.29
2018-09-24T10:17:14.821Z,13.16
2018-09-24T10:18:14.801Z,13.05
2018-09-24T10:19:14.813Z,13.03
2018-09-24T10:20:14.847Z,13.14
2018-09-24T10:21:14.776Z,13.27
2018-09-24T10:22:14.808Z,13.31
2018-09-24T10:23:14.853Z,13.27
2018-09-24T10:24:14.890Z,13.29
2018-09-24T10:25:14.753Z,13.25
2018-09-24T10:26:14.884Z,13.21
2018-09-24T10:27:14.771Z,13.18
2018-09-24T10:28:14.791Z,13.16
2018-09-24T10:29:14.860Z,13.12
2018-09-24T10:30:14.787Z,13.10
2018-09-24T10:31:14.854Z,12.99
2018-09-24T10:32:14.840Z,12.94
2018-09-24T10:33:14.791Z,12.99
2018-09-24T10:34:14.799Z,13.17
2018-09-24T10:35:14.742Z,13.25
2018-09-24T10:36:14.788Z,13.47
2018-09-24T10:37:14.794Z,13.81
2018-09-24T10:38:14.857Z,14.22
2018-09-24T10:39:14.824Z,14.29
2018-09-24T10:40:14.951Z,14.18
2018-09-24T10:41:14.821Z,14.18
2018-09-24T10:42:14.897Z,14.03
2018-09-24T10:43:14.860Z,13.98
2018-09-24T10:44:14.884Z,13.80
2018-09-24T10:45:14.937Z,13.69
2018-09-24T10:46:14.890Z,13.66
2018-09-24T10:47:14.885Z,13.80
2018-09-24T10:48:14.891Z,14.10
2018-09-24T10:49:14.857Z,14.15
2018-09-24T10:50:14.855Z,14.15
2018-09-24T10:51:14.857Z,14.35
2018-09-24T10:52:14.770Z,14.31
2018-09-24T10:53:14.803Z,14.15
2018-09-24T10:54:14.818Z,13.91
2018-09-24T10:55:14.821Z,13.80
2018-09-24T10:56:14.775Z,13.91
2018-09-24T10:57:14.855Z,14.09
2018-09-24T10:58:14.750Z,14.09
2018-09-24T10:59:14.886Z,14.07
2018-09-24T11:00:14.836Z,14.04
2018-09-24T11:01:14.829Z,14.03
2018-09-24T11:02:14.844Z,13.98
2018-09-24T11:03:14.910Z,13.89
2018-09-24T11:04:14.875Z,14.02
2018-09-24T11:05:14.835Z,14.03
2018-09-24T11:06:14.902Z,14.21
2018-09-24T11:07:14.800Z,14.28
2018-09-24T11:08:14.832Z,14.13
2018-09-24T11:09:14.897Z,14.06
2018-09-24T11:10:14.844Z,13.92
2018-09-24T11:11:14.882Z,13.79
2018-09-24T11:12:14.900Z,13.73
2018-09-24T11:13:14.888Z,13.66
2018-09-24T11:14:14.844Z,13.72
2018-09-24T11:15:14.853Z,13.66
2018-09-24T11:16:15.006Z,13.62
2018-09-24T11:17:15.017Z,13.66
2018-09-24T11:18:14.841Z,13.88
2018-09-24T11:19:14.844Z,14.17
2018-09-24T11:20:14.813Z,14.20
2018-09-24T11:21:14.919Z,14.40
2018-09-24T11:22:15.015Z,14.61
2018-09-24T11:23:14.904Z,14.83
2018-09-24T11:24:14.826Z,14.89
2018-09-24T11:25:14.791Z,14.76
2018-09-24T11:27:14.873Z,14.79
2018-09-24T11:28:14.900Z,14.94
2018-09-24T11:29:14.905Z,15.08
2018-09-24T11:30:14.921Z,15.19
2018-09-24T11:31:14.893Z,15.28
2018-09-24T11:32:14.801Z,15.24
2018-09-24T11:33:14.896Z,15.08
2018-09-24T11:34:14.866Z,14.80
2018-09-24T11:35:14.894Z,14.58
2018-09-24T11:36:14.795Z,14.50
2018-09-24T11:37:14.935Z,14.38
2018-09-24T11:38:14.840Z,14.33
2018-09-24T11:39:14.935Z,14.46
2018-09-24T11:40:14.920Z,14.55
2018-09-24T11:41:14.899Z,14.57
2018-09-24T11:42:14.858Z,14.44
2018-09-24T11:43:14.900Z,14.36
2018-09-24T11:44:14.843Z,14.39
2018-09-24T11:45:14.909Z,14.39
2018-09-24T11:46:14.824Z,14.36
2018-09-24T11:47:14.950Z,14.32
2018-09-24T11:48:14.869Z,14.18
2018-09-24T11:49:14.903Z,14.17
2018-09-24T11:50:14.875Z,14.09
2018-09-24T11:51:14.845Z,13.89
2018-09-24T11:52:14.929Z,13.95
2018-09-24T11:53:14.945Z,13.98
2018-09-24T11:54:14.930Z,14.06
2018-09-24T11:55:14.912Z,14.21
2018-09-24T11:56:14.851Z,14.22
2018-09-24T11:57:14.932Z,14.51
2018-09-24T11:58:14.930Z,14.76
2018-09-24T11:59:14.890Z,15.02
2018-09-24T12:00:14.870Z,15.25
2018-09-24T12:01:14.893Z,15.19
2018-09-24T12:02:14.891Z,15.10
2018-09-24T12:03:14.936Z,15.26
2018-09-24T12:04:14.899Z,15.37
2018-09-24T12:05:14.961Z,15.21
2018-09-24T12:06:14.943Z,15.37
2018-09-24T12:07:14.939Z,15.57
2018-09-24T12:08:14.875Z,15.65
2018-09-24T12:09:14.886Z,15.43
2018-09-24T12:10:14.868Z,15.39
2018-09-24T12:11:14.947Z,15.15
2018-09-24T12:12:14.943Z,15.10
2018-09-24T12:13:14.888Z,15.18
2018-09-24T12:14:14.940Z,15.32
2018-09-24T12:15:14.892Z,15.37
2018-09-24T12:16:14.925Z,15.47
2018-09-24T12:17:14.896Z,15.64
2018-09-24T12:18:14.950Z,15.65
2018-09-24T12:19:14.893Z,15.79
2018-09-24T12:20:14.866Z,15.83
2018-09-24T12:21:14.936Z,15.87
2018-09-24T12:22:14.936Z,15.83
2018-09-24T12:23:14.935Z,15.69
2018-09-24T12:24:14.951Z,15.65
2018-09-24T12:25:14.935Z,15.48
2018-09-24T12:26:14.867Z,15.65
2018-09-24T12:27:14.873Z,15.59
2018-09-24T12:28:14.873Z,15.64
2018-09-24T12:29:14.934Z,15.70
2018-09-24T12:30:14.858Z,15.39
2018-09-24T12:31:14.837Z,15.17
2018-09-24T12:32:14.876Z,15.02
2018-09-24T12:33:14.837Z,14.96
2018-09-24T12:34:14.912Z,14.86
2018-09-24T12:35:15.074Z,14.73
2018-09-24T12:36:14.913Z,14.58
2018-09-24T12:37:14.982Z,14.40
2018-09-24T12:38:14.986Z,14.32
2018-09-24T12:39:15.025Z,14.35
2018-09-24T12:40:14.861Z,14.36
2018-09-24T12:41:14.864Z,14.51
2018-09-24T12:42:14.926Z,14.69
2018-09-24T12:43:14.973Z,14.91
2018-09-24T12:44:14.922Z,15.10
2018-09-24T12:46:14.867Z,15.36
2018-09-24T12:47:14.852Z,15.36
2018-09-24T12:48:14.944Z,15.32
2018-09-24T12:49:14.970Z,15.18
2018-09-24T12:50:14.924Z,15.14
2018-09-24T12:51:14.976Z,15.14
2018-09-24T12:52:14.984Z,15.13
2018-09-24T12:53:14.949Z,15.15
2018-09-24T12:54:14.937Z,15.13
2018-09-24T12:55:14.953Z,15.07
2018-09-24T12:56:14.959Z,15.04
2018-09-24T12:57:14.934Z,14.92
2018-09-24T12:58:14.940Z,14.72
2018-09-24T12:59:14.860Z,14.61
2018-09-24T13:00:14.920Z,14.31
2018-09-24T13:01:14.918Z,13.89
2018-09-24T13:02:14.983Z,13.34
2018-09-24T13:03:14.941Z,13.02
2018-09-24T13:04:14.959Z,12.64
2018-09-24T13:05:14.916Z,12.42
2018-09-24T13:06:14.940Z,12.25
2018-09-24T13:07:14.865Z,12.18
2018-09-24T13:08:15.004Z,12.16
2018-09-24T13:09:14.941Z,11.80
2018-09-24T13:10:14.937Z,11.50
2018-09-24T13:11:14.988Z,11.27
2018-09-24T13:12:14.942Z,11.18